Time;durP1;ratioP1;P1;durP2;ratioP2;P2;SDS_P1;SDS_P2;PMS_P1;PMS_P2;Temp;Humidity;BMP_temperature;BMP_pressure;BME280_temperature;BME280_humidity;BME280_pressure;Samples;Min_cycle;Max_cycle;Signal;HPM_P1;HPM_P2
2023/06/19 00:00:24;;;;;;;5.38;4.20;;;;;;;;;;5112961;28;20059;-61
2023/06/19 00:02:51;;;;;;;5.10;4.05;;;;;;;;;;5109586;28;20397;-61
2023/06/19 00:05:18;;;;;;;5.03;4.30;;;;;;;;;;5104470;28;20052;-61
2023/06/19 00:07:46;;;;;;;4.50;4.10;;;;;;;;;;5112619;28;20056;-61
2023/06/19 00:10:13;;;;;;;4.57;4.18;;;;;;;;;;5112643;28;20047;-62
2023/06/19 00:12:43;;;;;;;5.35;4.30;;;;;;;;;;5110872;28;20051;-61
2023/06/19 00:15:10;;;;;;;4.75;3.95;;;;;;;;;;5111816;28;20059;-61
2023/06/19 00:17:38;;;;;;;4.25;3.85;;;;;;;;;;5112434;28;20483;-61
2023/06/19 00:20:06;;;;;;;4.95;4.38;;;;;;;;;;5116602;28;20051;-62
2023/06/19 00:22:33;;;;;;;5.18;4.22;;;;;;;;;;5115885;28;20408;-61
2023/06/19 00:25:01;;;;;;;5.47;3.90;;;;;;;;;;5116736;28;20373;-62
2023/06/19 00:27:28;;;;;;;6.10;3.83;;;;;;;;;;5116349;28;20408;-62
2023/06/19 00:29:57;;;;;;;4.28;3.78;;;;;;;;;;5116934;28;20043;-62
2023/06/19 00:32:26;;;;;;;5.15;4.03;;;;;;;;;;5114354;27;20055;-61
2023/06/19 00:34:53;;;;;;;3.97;3.60;;;;;;;;;;5115740;28;20052;-62
2023/06/19 00:37:23;;;;;;;4.47;3.90;;;;;;;;;;5115951;28;20531;-61
2023/06/19 00:39:50;;;;;;;4.10;3.70;;;;;;;;;;5116108;28;20054;-62
2023/06/19 00:42:18;;;;;;;5.38;3.72;;;;;;;;;;5115337;27;20488;-62
2023/06/19 00:44:45;;;;;;;4.75;4.25;;;;;;;;;;5116553;28;20055;-61
2023/06/19 00:47:14;;;;;;;5.93;4.68;;;;;;;;;;5114455;27;20059;-61
2023/06/19 00:49:43;;;;;;;;;;;;;;;;;;5116761;28;20047;-62
2023/06/19 00:52:10;;;;;;;4.75;4.25;;;;;;;;;;5115294;28;19920;-61
2023/06/19 00:54:39;;;;;;;5.05;4.18;;;;;;;;;;5116309;28;20062;-61
2023/06/19 00:57:08;;;;;;;;;;;;;;;;;;5116856;28;20515;-61
2023/06/19 00:59:37;;;;;;;4.50;4.10;;;;;;;;;;5116165;28;20332;-61
2023/06/19 01:02:04;;;;;;;4.85;4.22;;;;;;;;;;5114312;27;20054;-61
2023/06/19 01:04:31;;;;;;;6.13;4.53;;;;;;;;;;5116083;28;20066;-61
2023/06/19 01:07:00;;;;;;;5.28;4.72;;;;;;;;;;5115847;28;20055;-62
2023/06/19 01:09:30;;;;;;;5.53;4.18;;;;;;;;;;5116213;28;20408;-61
2023/06/19 01:11:58;;;;;;;4.85;4.28;;;;;;;;;;5115014;27;20048;-61
2023/06/19 01:14:28;;;;;;;5.93;4.30;;;;;;;;;;5116138;28;20416;-61
2023/06/19 01:16:54;;;;;;;;;;;;;;;;;;5114733;28;20075;-61
2023/06/19 01:19:23;;;;;;;5.65;4.22;;;;;;;;;;5115956;28;19927;-61
2023/06/19 01:21:50;;;;;;;4.95;4.45;;;;;;;;;;5114860;27;20428;-61
2023/06/19 01:24:18;;;;;;;5.60;4.68;;;;;;;;;;5115786;28;20058;-61
2023/06/19 01:26:48;;;;;;;5.30;4.47;;;;;;;;;;5115713;28;20401;-61
2023/06/19 01:29:18;;;;;;;5.10;4.43;;;;;;;;;;5114725;28;20048;-61
2023/06/19 01:31:48;;;;;;;5.13;4.43;;;;;;;;;;5111315;27;20058;-61
2023/06/19 01:34:16;;;;;;;5.60;4.82;;;;;;;;;;5114823;28;20472;-61
2023/06/19 01:36:43;;;;;;;6.70;4.78;;;;;;;;;;5115182;28;20054;-61
2023/06/19 01:39:10;;;;;;;5.60;5.00;;;;;;;;;;5115034;28;20056;-61
2023/06/19 01:41:39;;;;;;;5.07;4.30;;;;;;;;;;5113660;28;20055;-61
2023/06/19 01:44:08;;;;;;;5.60;4.95;;;;;;;;;;5115556;28;20052;-61
2023/06/19 01:46:35;;;;;;;;;;;;;;;;;;5113780;28;20051;-61
2023/06/19 01:49:02;;;;;;;5.78;4.60;;;;;;;;;;5115354;28;19919;-61
2023/06/19 01:51:28;;;;;;;4.88;4.47;;;;;;;;;;5112979;27;20047;-61
2023/06/19 01:54:11;;;;;;;5.72;4.35;;;;;;;;;;5115251;28;20499;-61
2023/06/19 01:56:40;;;;;;;5.43;4.65;;;;;;;;;;5114149;28;20058;-61
2023/06/19 01:59:07;;;;;;;;;;;;;;;;;;5114313;28;20058;-61
2023/06/19 02:01:33;;;;;;;5.55;4.57;;;;;;;;;;5113806;28;20292;-61
2023/06/19 02:04:00;;;;;;;8.05;4.85;;;;;;;;;;5115014;28;20056;-62
2023/06/19 02:06:27;;;;;;;5.57;4.38;;;;;;;;;;5114916;28;20062;-62
2023/06/19 02:08:54;;;;;;;4.63;4.22;;;;;;;;;;5113933;28;20062;-61
2023/06/19 02:11:21;;;;;;;4.88;4.38;;;;;;;;;;5114217;28;20044;-61
2023/06/19 02:13:49;;;;;;;5.82;4.20;;;;;;;;;;5114831;28;20054;-61
2023/06/19 02:16:16;;;;;;;6.03;4.82;;;;;;;;;;5113745;28;20056;-62
2023/06/19 02:18:43;;;;;;;5.72;5.00;;;;;;;;;;5111491;28;20059;-61
2023/06/19 02:21:09;;;;;;;5.03;4.53;;;;;;;;;;5114041;28;20055;-61
2023/06/19 02:23:36;;;;;;;5.70;5.20;;;;;;;;;;5114532;28;20507;-61
2023/06/19 02:26:03;;;;;;;5.70;4.45;;;;;;;;;;5114730;28;20068;-61
2023/06/19 02:28:38;;;;;;;4.97;4.47;;;;;;;;;;5113318;28;20057;-62
2023/06/19 02:31:06;;;;;;;5.95;5.32;;;;;;;;;;5114603;28;20396;-61
2023/06/19 02:33:33;;;;;;;6.38;4.55;;;;;;;;;;5112830;28;20494;-61
2023/06/19 02:36:03;;;;;;;6.32;4.93;;;;;;;;;;5114397;28;20062;-61
2023/06/19 02:38:30;;;;;;;7.38;5.53;;;;;;;;;;5113179;28;20051;-61
2023/06/19 02:41:00;;;;;;;5.72;4.95;;;;;;;;;;5104200;28;20056;-61
2023/06/19 02:43:27;;;;;;;7.07;5.22;;;;;;;;;;5093866;28;20404;-61
2023/06/19 02:45:54;;;;;;;5.53;4.93;;;;;;;;;;5094152;28;20055;-61
2023/06/19 02:48:23;;;;;;;5.43;4.70;;;;;;;;;;5110848;27;20059;-61
2023/06/19 02:50:50;;;;;;;5.65;5.05;;;;;;;;;;5114290;28;20070;-62
2023/06/19 02:53:17;;;;;;;5.63;5.13;;;;;;;;;;5113867;28;20402;-61
2023/06/19 02:55:44;;;;;;;5.45;4.95;;;;;;;;;;5113755;28;20485;-62
2023/06/19 02:58:11;;;;;;;5.97;4.90;;;;;;;;;;5112924;28;20051;-62
2023/06/19 03:00:37;;;;;;;5.70;4.90;;;;;;;;;;5113466;28;20477;-62
2023/06/19 03:03:04;;;;;;;5.50;5.00;;;;;;;;;;5110568;28;20055;-62
2023/06/19 03:05:32;;;;;;;6.38;5.13;;;;;;;;;;5113420;28;20134;-62
2023/06/19 03:08:00;;;;;;;5.57;4.63;;;;;;;;;;5112460;28;20056;-62
2023/06/19 03:10:26;;;;;;;5.70;5.18;;;;;;;;;;5113654;28;20044;-62
2023/06/19 03:12:58;;;;;;;6.55;5.38;;;;;;;;;;5111668;28;20400;-61
2023/06/19 03:15:25;;;;;;;5.70;4.97;;;;;;;;;;5113257;28;20393;-61
2023/06/19 03:17:53;;;;;;;6.20;4.93;;;;;;;;;;5101651;28;20055;-62
2023/06/19 03:20:20;;;;;;;5.32;4.80;;;;;;;;;;5092862;28;20055;-62
2023/06/19 03:22:48;;;;;;;5.95;4.93;;;;;;;;;;5092999;28;20059;-62
2023/06/19 03:25:20;;;;;;;5.47;4.97;;;;;;;;;;5092822;28;20059;-62
2023/06/19 03:27:47;;;;;;;5.60;4.93;;;;;;;;;;5104657;28;20054;-62
2023/06/19 03:30:14;;;;;;;5.60;5.05;;;;;;;;;;5113221;28;20408;-62
2023/06/19 03:32:41;;;;;;;5.13;4.65;;;;;;;;;;5110881;28;20468;-62
2023/06/19 03:35:10;;;;;;;5.53;4.68;;;;;;;;;;5112769;28;20058;-62
2023/06/19 03:37:39;;;;;;;4.70;4.10;;;;;;;;;;5109853;28;20056;-62
2023/06/19 03:40:13;;;;;;;5.85;4.18;;;;;;;;;;5112369;28;20501;-62
2023/06/19 03:42:39;;;;;;;6.15;4.47;;;;;;;;;;5113008;28;20059;-61
2023/06/19 03:45:07;;;;;;;5.30;4.57;;;;;;;;;;5112646;28;20058;-62
2023/06/19 03:47:34;;;;;;;4.13;3.70;;;;;;;;;;5109015;27;20058;-61
2023/06/19 03:50:01;;;;;;;5.57;4.30;;;;;;;;;;5112567;28;20063;-62
2023/06/19 03:52:28;;;;;;;5.47;3.88;;;;;;;;;;5108370;28;20040;-62
2023/06/19 03:54:55;;;;;;;4.45;3.83;;;;;;;;;;5110650;28;20058;-62
2023/06/19 03:57:23;;;;;;;3.90;3.50;;;;;;;;;;5106105;28;20051;-62
2023/06/19 03:59:52;;;;;;;4.82;3.92;;;;;;;;;;5109535;28;20059;-62
2023/06/19 04:02:18;;;;;;;5.00;3.55;;;;;;;;;;5108041;28;20051;-62
2023/06/19 04:04:47;;;;;;;4.20;3.50;;;;;;;;;;5107589;28;20504;-62
2023/06/19 04:07:14;;;;;;;4.05;3.50;;;;;;;;;;5108265;28;20051;-62
2023/06/19 04:09:41;;;;;;;3.78;3.35;;;;;;;;;;5106180;28;20162;-63
2023/06/19 04:12:08;;;;;;;3.72;3.28;;;;;;;;;;5103694;28;20051;-62
2023/06/19 04:14:36;;;;;;;4.30;3.65;;;;;;;;;;5109187;28;20139;-62
2023/06/19 04:17:03;;;;;;;3.80;3.13;;;;;;;;;;5107941;28;20060;-62
2023/06/19 04:19:30;;;;;;;5.45;3.50;;;;;;;;;;5108667;28;20047;-62
2023/06/19 04:21:59;;;;;;;3.78;3.38;;;;;;;;;;5111602;28;20052;-62
2023/06/19 04:24:26;;;;;;;;;;;;;;;;;;5112039;28;20047;-62
2023/06/19 04:26:52;;;;;;;4.93;3.20;;;;;;;;;;5112589;28;19920;-63
2023/06/19 04:29:19;;;;;;;4.70;3.13;;;;;;;;;;5112693;28;20349;-62
2023/06/19 04:31:50;;;;;;;6.88;3.50;;;;;;;;;;5112529;28;20055;-62
2023/06/19 04:34:20;;;;;;;3.70;3.13;;;;;;;;;;5109676;28;20070;-62
2023/06/19 04:36:47;;;;;;;3.40;3.00;;;;;;;;;;5111736;28;20074;-62
2023/06/19 04:39:14;;;;;;;3.88;3.10;;;;;;;;;;5112621;28;20388;-60
2023/06/19 04:41:43;;;;;;;3.97;3.00;;;;;;;;;;5112307;28;20056;-62
2023/06/19 04:44:11;;;;;;;4.25;3.30;;;;;;;;;;5111483;28;20051;-62
2023/06/19 04:46:38;;;;;;;3.70;3.30;;;;;;;;;;5112204;28;20052;-62
2023/06/19 04:49:06;;;;;;;5.28;3.30;;;;;;;;;;5111238;28;20048;-63
2023/06/19 04:51:33;;;;;;;4.60;3.13;;;;;;;;;;5112781;28;20059;-62
2023/06/19 04:54:00;;;;;;;4.95;3.70;;;;;;;;;;5111716;28;20047;-61
2023/06/19 04:56:27;;;;;;;4.78;3.58;;;;;;;;;;5112227;28;20485;-62
2023/06/19 04:58:57;;;;;;;5.28;3.53;;;;;;;;;;5110969;28;20054;-62
2023/06/19 05:01:28;;;;;;;3.83;3.42;;;;;;;;;;5111164;28;20055;-62
2023/06/19 05:03:56;;;;;;;3.50;3.20;;;;;;;;;;5110726;28;20059;-62
2023/06/19 05:06:24;;;;;;;4.47;3.50;;;;;;;;;;5114198;28;20055;-62
2023/06/19 05:08:52;;;;;;;5.25;3.45;;;;;;;;;;5115834;28;20456;-62
2023/06/19 05:11:21;;;;;;;3.92;3.33;;;;;;;;;;5122581;27;20055;-60
2023/06/19 05:13:48;;;;;;;3.80;2.88;;;;;;;;;;5113816;28;20055;-61
2023/06/19 05:16:17;;;;;;;4.32;2.90;;;;;;;;;;5115697;28;20480;-60
2023/06/19 05:18:44;;;;;;;;;;;;;;;;;;5113896;28;20055;-61
2023/06/19 05:21:11;;;;;;;4.72;3.03;;;;;;;;;;5115193;28;19920;-62
2023/06/19 05:23:39;;;;;;;3.38;2.50;;;;;;;;;;5114516;28;20052;-61
2023/06/19 05:26:06;;;;;;;4.07;3.17;;;;;;;;;;5112635;28;20493;-61
2023/06/19 05:28:33;;;;;;;4.10;2.97;;;;;;;;;;5111033;28;20051;-61
2023/06/19 05:31:00;;;;;;;3.45;2.70;;;;;;;;;;5113494;27;20059;-60
2023/06/19 05:33:27;;;;;;;4.88;2.75;;;;;;;;;;5112649;27;20070;-60
2023/06/19 05:35:54;;;;;;;3.78;2.97;;;;;;;;;;5115162;28;20056;-60
2023/06/19 05:38:21;;;;;;;3.85;2.90;;;;;;;;;;5115197;28;20070;-60
2023/06/19 05:40:49;;;;;;;3.53;2.65;;;;;;;;;;5113642;28;20082;-60
2023/06/19 05:43:16;;;;;;;5.57;3.00;;;;;;;;;;5115011;28;20048;-61
2023/06/19 05:45:43;;;;;;;3.20;2.35;;;;;;;;;;5113675;28;20067;-61
2023/06/19 05:48:09;;;;;;;4.22;2.63;;;;;;;;;;5113808;28;20047;-60
2023/06/19 05:50:36;;;;;;;4.30;2.70;;;;;;;;;;5114882;28;20059;-62
2023/06/19 05:53:03;;;;;;;5.03;2.85;;;;;;;;;;5114964;28;20472;-61
2023/06/19 05:55:30;;;;;;;4.05;2.40;;;;;;;;;;5113592;28;20428;-62
2023/06/19 05:57:58;;;;;;;3.85;2.65;;;;;;;;;;5114911;28;20047;-62
2023/06/19 06:00:25;;;;;;;3.88;2.20;;;;;;;;;;5114714;28;20066;-63
2023/06/19 06:02:52;;;;;;;2.40;2.08;;;;;;;;;;5114629;28;20070;-63
2023/06/19 06:05:20;;;;;;;4.20;2.30;;;;;;;;;;5113531;28;20047;-63
2023/06/19 06:07:47;;;;;;;3.60;2.58;;;;;;;;;;5114822;28;20051;-63
2023/06/19 06:10:15;;;;;;;4.18;2.25;;;;;;;;;;5114480;28;20082;-62
2023/06/19 06:12:42;;;;;;;4.30;2.42;;;;;;;;;;5116242;27;20043;-62
2023/06/19 06:15:11;;;;;;;4.80;2.22;;;;;;;;;;5114494;27;20063;-62
2023/06/19 06:17:38;;;;;;;2.60;2.40;;;;;;;;;;5113092;27;20079;-62
2023/06/19 06:20:09;;;;;;;4.07;2.60;;;;;;;;;;5113299;28;20063;-62
2023/06/19 06:22:36;;;;;;;5.50;2.50;;;;;;;;;;5114041;28;20048;-62
2023/06/19 06:25:04;;;;;;;3.67;2.30;;;;;;;;;;5113313;28;20055;-62
2023/06/19 06:27:31;;;;;;;2.88;2.20;;;;;;;;;;5114258;28;20051;-61
2023/06/19 06:29:58;;;;;;;2.40;1.88;;;;;;;;;;5114284;28;20063;-61
2023/06/19 06:32:28;;;;;;;2.35;2.00;;;;;;;;;;5114055;28;20047;-62
2023/06/19 06:34:55;;;;;;;4.28;2.00;;;;;;;;;;5112702;27;20055;-62
2023/06/19 06:37:23;;;;;;;2.97;2.40;;;;;;;;;;5111937;28;20428;-61
2023/06/19 06:39:50;;;;;;;3.10;2.05;;;;;;;;;;5113328;28;20051;-61
2023/06/19 06:42:17;;;;;;;5.07;2.50;;;;;;;;;;5114037;28;20047;-61
2023/06/19 06:44:44;;;;;;;4.43;2.17;;;;;;;;;;5110371;28;20056;-61
2023/06/19 06:47:10;;;;;;;2.60;1.90;;;;;;;;;;5113063;28;20059;-62
2023/06/19 06:49:39;;;;;;;3.75;1.83;;;;;;;;;;5113304;28;20158;-61
2023/06/19 06:52:06;;;;;;;2.92;2.20;;;;;;;;;;5114104;28;20078;-61
2023/06/19 06:54:33;;;;;;;2.40;2.10;;;;;;;;;;5113438;28;20066;-61
2023/06/19 06:57:00;;;;;;;2.85;1.85;;;;;;;;;;5112380;28;20495;-61
2023/06/19 06:59:27;;;;;;;2.90;1.83;;;;;;;;;;5114018;28;20404;-61
2023/06/19 07:01:54;;;;;;;4.30;2.20;;;;;;;;;;5113880;28;20052;-61
2023/06/19 07:04:21;;;;;;;3.78;2.20;;;;;;;;;;5110870;27;20052;-60
2023/06/19 07:06:49;;;;;;;4.05;2.10;;;;;;;;;;5114173;28;20401;-61
2023/06/19 07:09:16;;;;;;;2.63;2.43;;;;;;;;;;5113370;27;20070;-61
2023/06/19 07:11:42;;;;;;;2.80;2.00;;;;;;;;;;5113385;28;20055;-60
2023/06/19 07:14:09;;;;;;;3.42;2.30;;;;;;;;;;5112644;28;20051;-61
2023/06/19 07:16:36;;;;;;;2.50;2.10;;;;;;;;;;5113104;28;20484;-61
2023/06/19 07:19:03;;;;;;;3.08;2.15;;;;;;;;;;5111232;28;20059;-60
2023/06/19 07:21:30;;;;;;;3.15;1.98;;;;;;;;;;5113569;28;20051;-61
2023/06/19 07:23:58;;;;;;;2.88;1.80;;;;;;;;;;5113182;28;20051;-60
2023/06/19 07:26:25;;;;;;;2.92;2.05;;;;;;;;;;5112427;28;20059;-61
2023/06/19 07:28:52;;;;;;;3.63;1.95;;;;;;;;;;5111801;28;20066;-61
2023/06/19 07:31:19;;;;;;;2.40;1.90;;;;;;;;;;5112535;28;20051;-61
2023/06/19 07:33:46;;;;;;;3.67;2.17;;;;;;;;;;5110478;28;20043;-61
2023/06/19 07:36:14;;;;;;;3.05;1.80;;;;;;;;;;5110387;28;20047;-61
2023/06/19 07:38:41;;;;;;;3.88;2.00;;;;;;;;;;5112735;28;20055;-60
2023/06/19 07:41:09;;;;;;;2.78;1.80;;;;;;;;;;5112682;28;20083;-60
2023/06/19 07:43:36;;;;;;;3.17;1.60;;;;;;;;;;5120813;27;20039;-61
2023/06/19 07:46:03;;;;;;;2.42;1.60;;;;;;;;;;5133754;27;20051;-61
2023/06/19 07:48:30;;;;;;;3.70;1.98;;;;;;;;;;5120024;27;20059;-63
2023/06/19 07:50:57;;;;;;;3.33;1.77;;;;;;;;;;5109292;28;20047;-63
2023/06/19 07:53:24;;;;;;;3.22;1.48;;;;;;;;;;5112996;28;20051;-62
2023/06/19 07:55:51;;;;;;;2.25;1.55;;;;;;;;;;5112752;28;20062;-63
2023/06/19 07:58:19;;;;;;;2.55;1.60;;;;;;;;;;5112803;28;20464;-63
2023/06/19 08:00:46;;;;;;;3.50;1.60;;;;;;;;;;5113109;28;20062;-62
2023/06/19 08:03:12;;;;;;;2.53;1.60;;;;;;;;;;5111728;28;20501;-63
2023/06/19 08:05:39;;;;;;;2.92;1.70;;;;;;;;;;5113325;28;20052;-62
2023/06/19 08:08:06;;;;;;;1.95;1.55;;;;;;;;;;5112453;28;20396;-62
2023/06/19 08:10:33;;;;;;;2.17;1.83;;;;;;;;;;5112662;28;20055;-62
2023/06/19 08:13:00;;;;;;;2.50;1.80;;;;;;;;;;5112806;28;20047;-62
2023/06/19 08:15:28;;;;;;;2.40;1.77;;;;;;;;;;5112507;28;20435;-62
2023/06/19 08:17:55;;;;;;;3.00;1.97;;;;;;;;;;5109921;28;20051;-62
2023/06/19 08:20:22;;;;;;;3.42;1.83;;;;;;;;;;5113096;28;20052;-63
2023/06/19 08:22:48;;;;;;;2.78;1.80;;;;;;;;;;5112250;28;20052;-63
2023/06/19 08:25:15;;;;;;;3.88;1.65;;;;;;;;;;5112245;28;20066;-63
2023/06/19 08:27:45;;;;;;;2.38;1.58;;;;;;;;;;5112413;28;20408;-63
2023/06/19 08:30:11;;;;;;;2.50;1.75;;;;;;;;;;5111832;28;20400;-64
2023/06/19 08:32:40;;;;;;;2.30;1.70;;;;;;;;;;5111559;28;20056;-63
2023/06/19 08:35:07;;;;;;;4.63;1.80;;;;;;;;;;5112436;28;20047;-62
2023/06/19 08:37:34;;;;;;;2.33;1.85;;;;;;;;;;5112465;28;20066;-62
2023/06/19 08:40:02;;;;;;;3.58;1.50;;;;;;;;;;5113585;28;20059;-62
2023/06/19 08:42:29;;;;;;;2.20;1.75;;;;;;;;;;5116262;28;20055;-62
2023/06/19 08:44:56;;;;;;;4.15;1.90;;;;;;;;;;5127627;27;20064;-62
2023/06/19 08:47:23;;;;;;;4.55;1.73;;;;;;;;;;5117093;28;20056;-62
2023/06/19 08:49:51;;;;;;;2.60;1.75;;;;;;;;;;5117104;28;20051;-63
2023/06/19 08:52:19;;;;;;;2.95;1.95;;;;;;;;;;5117558;28;20051;-60
2023/06/19 08:54:46;;;;;;;6.38;2.03;;;;;;;;;;5127913;28;20043;-62
2023/06/19 08:57:13;;;;;;;3.25;1.70;;;;;;;;;;5116396;28;20066;-62
2023/06/19 08:59:40;;;;;;;2.55;1.70;;;;;;;;;;5115190;28;20404;-63
2023/06/19 09:02:07;;;;;;;2.83;1.83;;;;;;;;;;5116036;28;20055;-63
2023/06/19 09:04:34;;;;;;;4.63;2.10;;;;;;;;;;5116372;28;20043;-60
2023/06/19 09:07:03;;;;;;;3.88;2.00;;;;;;;;;;5115775;28;20074;-61
2023/06/19 09:09:30;;;;;;;2.63;1.63;;;;;;;;;;5116066;28;20436;-63
2023/06/19 09:11:58;;;;;;;3.40;1.80;;;;;;;;;;5116086;28;20051;-61
2023/06/19 09:14:25;;;;;;;4.22;1.83;;;;;;;;;;5113163;28;20396;-61
2023/06/19 09:16:52;;;;;;;3.00;1.70;;;;;;;;;;5114709;28;20078;-61
2023/06/19 09:19:20;;;;;;;2.97;1.70;;;;;;;;;;5115906;28;20047;-61
2023/06/19 09:21:47;;;;;;;2.80;1.70;;;;;;;;;;5115708;28;20058;-61
2023/06/19 09:24:16;;;;;;;2.75;2.05;;;;;;;;;;5115521;28;20055;-61
2023/06/19 09:26:43;;;;;;;3.92;1.92;;;;;;;;;;5115770;28;20063;-61
2023/06/19 09:29:11;;;;;;;3.03;1.80;;;;;;;;;;5113471;28;20051;-61
2023/06/19 09:31:39;;;;;;;3.97;2.38;;;;;;;;;;5115224;28;20062;-62
2023/06/19 09:34:05;;;;;;;2.00;1.77;;;;;;;;;;5114284;28;20492;-62
2023/06/19 09:36:33;;;;;;;4.22;2.00;;;;;;;;;;5115012;28;20473;-61
2023/06/19 09:39:01;;;;;;;6.20;2.20;;;;;;;;;;5115476;28;20386;-62
2023/06/19 09:41:29;;;;;;;2.55;1.73;;;;;;;;;;5114989;28;20066;-61
2023/06/19 09:43:57;;;;;;;;;;;;;;;;;;5113135;27;20048;-61
2023/06/19 09:46:26;;;;;;;2.45;1.80;;;;;;;;;;5115149;28;19926;-62
2023/06/19 09:48:57;;;;;;;3.58;1.77;;;;;;;;;;5114250;27;20488;-62
2023/06/19 09:51:28;;;;;;;2.92;1.60;;;;;;;;;;5122285;27;20047;-61
2023/06/19 09:53:57;;;;;;;2.40;1.70;;;;;;;;;;5115034;28;20052;-61
2023/06/19 09:56:26;;;;;;;2.95;1.80;;;;;;;;;;5122982;27;20061;-61
2023/06/19 09:58:57;;;;;;;2.10;1.48;;;;;;;;;;5121461;27;20488;-62
2023/06/19 10:01:26;;;;;;;2.33;2.03;;;;;;;;;;5114642;28;20052;-61
2023/06/19 10:03:52;;;;;;;;;;;;;;;;;;5115236;28;20048;-62
2023/06/19 10:06:20;;;;;;;3.20;2.00;;;;;;;;;;5114812;28;19919;-62
2023/06/19 10:08:46;;;;;;;2.95;2.00;;;;;;;;;;5114640;28;20059;-62
2023/06/19 10:11:14;;;;;;;2.55;2.03;;;;;;;;;;5114693;28;20059;-62
2023/06/19 10:13:41;;;;;;;2.25;1.90;;;;;;;;;;5112613;27;20047;-62
2023/06/19 10:16:20;;;;;;;3.35;2.10;;;;;;;;;;5114578;28;20056;-62
2023/06/19 10:18:47;;;;;;;2.47;2.28;;;;;;;;;;5114987;28;20369;-61
2023/06/19 10:21:16;;;;;;;2.83;2.00;;;;;;;;;;5114632;28;20060;-62
2023/06/19 10:23:43;;;;;;;2.65;2.30;;;;;;;;;;5114304;28;20039;-62
2023/06/19 10:26:16;;;;;;;3.75;1.83;;;;;;;;;;5114651;28;20055;-61
2023/06/19 10:28:47;;;;;;;3.78;3.42;;;;;;;;;;5112870;28;20047;-62
2023/06/19 10:31:15;;;;;;;3.08;2.10;;;;;;;;;;5114591;28;20155;-62
2023/06/19 10:33:41;;;;;;;;;;;;;;;;;;5114846;28;20130;-62
2023/06/19 10:36:15;;;;;;;2.30;1.95;;;;;;;;;;5112853;28;19919;-61
2023/06/19 10:38:47;;;;;;;3.95;2.13;;;;;;;;;;5113844;28;20051;-62
2023/06/19 10:41:15;;;;;;;2.97;2.15;;;;;;;;;;5113856;28;20067;-62
2023/06/19 10:43:42;;;;;;;4.30;2.00;;;;;;;;;;5112757;28;20090;-61
2023/06/19 10:46:09;;;;;;;2.85;2.35;;;;;;;;;;5113906;28;20055;-61
2023/06/19 10:48:37;;;;;;;2.83;1.90;;;;;;;;;;5114195;28;20058;-62
2023/06/19 10:51:04;;;;;;;3.58;2.08;;;;;;;;;;5112638;28;20121;-62
2023/06/19 10:53:32;;;;;;;3.03;2.40;;;;;;;;;;5098208;28;20048;-63
2023/06/19 10:56:00;;;;;;;3.58;2.40;;;;;;;;;;5093030;28;20051;-64
2023/06/19 10:58:29;;;;;;;3.72;2.70;;;;;;;;;;5106661;28;20105;-63
2023/06/19 11:00:56;;;;;;;3.03;2.17;;;;;;;;;;5113578;28;20062;-64
2023/06/19 11:03:23;;;;;;;4.22;2.63;;;;;;;;;;5112986;28;20058;-63
2023/06/19 11:05:51;;;;;;;4.03;2.53;;;;;;;;;;5113007;28;20507;-63
2023/06/19 11:08:22;;;;;;;3.22;2.40;;;;;;;;;;5113670;28;20052;-63
2023/06/19 11:10:52;;;;;;;5.72;2.60;;;;;;;;;;5113046;28;20048;-64
2023/06/19 11:13:19;;;;;;;3.75;2.90;;;;;;;;;;5111039;28;20052;-64
2023/06/19 11:15:49;;;;;;;3.55;2.33;;;;;;;;;;5113457;28;20043;-63
2023/06/19 11:18:16;;;;;;;5.05;2.40;;;;;;;;;;5113145;28;20484;-63
2023/06/19 11:20:44;;;;;;;3.97;2.67;;;;;;;;;;5112367;28;20484;-63
2023/06/19 11:23:13;;;;;;;4.93;2.85;;;;;;;;;;5113332;28;20472;-63
2023/06/19 11:25:41;;;;;;;3.90;2.38;;;;;;;;;;5113315;28;20476;-64
2023/06/19 11:28:08;;;;;;;;;;;;;;;;;;5111442;28;20044;-64
2023/06/19 11:30:35;;;;;;;3.67;2.75;;;;;;;;;;5111723;28;19947;-64
2023/06/19 11:33:02;;;;;;;4.47;2.60;;;;;;;;;;5110574;28;20055;-63
2023/06/19 11:35:34;;;;;;;2.85;2.33;;;;;;;;;;5112961;28;20047;-62
2023/06/19 11:38:00;;;;;;;4.10;3.00;;;;;;;;;;5113333;28;20404;-62
2023/06/19 11:40:30;;;;;;;4.53;2.75;;;;;;;;;;5112632;28;20407;-62
2023/06/19 11:42:57;;;;;;;2.95;2.65;;;;;;;;;;5111665;28;20432;-62
2023/06/19 11:45:23;;;;;;;3.85;2.78;;;;;;;;;;5112489;28;20047;-62
2023/06/19 11:47:50;;;;;;;3.53;2.60;;;;;;;;;;5112925;28;20066;-62
2023/06/19 11:50:19;;;;;;;4.20;2.88;;;;;;;;;;5112607;28;20051;-62
2023/06/19 11:52:45;;;;;;;3.03;2.63;;;;;;;;;;5112507;28;20048;-62
2023/06/19 11:55:13;;;;;;;5.55;3.08;;;;;;;;;;5112526;28;20055;-62
2023/06/19 11:57:42;;;;;;;7.10;3.35;;;;;;;;;;5111761;28;20055;-62
2023/06/19 12:00:17;;;;;;;4.40;2.72;;;;;;;;;;5111657;28;20047;-62
2023/06/19 12:02:45;;;;;;;3.20;2.72;;;;;;;;;;5113016;28;20396;-62
2023/06/19 12:05:12;;;;;;;3.42;3.03;;;;;;;;;;5112924;28;20047;-62
2023/06/19 12:07:39;;;;;;;4.75;3.25;;;;;;;;;;5112706;28;20388;-62
2023/06/19 12:10:09;;;;;;;3.42;3.05;;;;;;;;;;5112591;28;20404;-63
2023/06/19 12:12:36;;;;;;;6.35;3.17;;;;;;;;;;5112035;28;20063;-62
2023/06/19 12:15:06;;;;;;;4.40;2.88;;;;;;;;;;5112886;28;20059;-63
2023/06/19 12:17:32;;;;;;;4.15;2.97;;;;;;;;;;5116692;28;20484;-63
2023/06/19 12:19:59;;;;;;;4.77;3.27;;;;;;;;;;5116777;28;20056;-62
2023/06/19 12:22:27;;;;;;;4.80;3.13;;;;;;;;;;5116703;28;20051;-62
2023/06/19 12:24:53;;;;;;;;;;;;;;;;;;5117023;28;20059;-63
2023/06/19 12:27:20;;;;;;;6.93;2.58;;;;;;;;;;5116515;28;19920;-62
2023/06/19 12:29:47;;;;;;;3.35;2.70;;;;;;;;;;5115219;28;20055;-63
2023/06/19 12:32:15;;;;;;;4.35;2.60;;;;;;;;;;5116458;28;20054;-62
2023/06/19 12:34:46;;;;;;;5.70;3.17;;;;;;;;;;5116146;28;20047;-62
2023/06/19 12:37:13;;;;;;;4.15;2.72;;;;;;;;;;5116169;28;20489;-63
2023/06/19 12:39:41;;;;;;;6.80;3.00;;;;;;;;;;5116234;28;20052;-64
2023/06/19 12:42:07;;;;;;;4.55;3.28;;;;;;;;;;5114547;28;20507;-64
2023/06/19 12:44:34;;;;;;;3.60;2.75;;;;;;;;;;5116717;28;20059;-64
2023/06/19 12:47:01;;;;;;;4.05;2.90;;;;;;;;;;5116048;28;20048;-64
2023/06/19 12:49:29;;;;;;;5.45;2.95;;;;;;;;;;5116354;28;20055;-64
2023/06/19 12:51:56;;;;;;;6.38;3.30;;;;;;;;;;5116172;28;20062;-63
2023/06/19 12:54:23;;;;;;;5.63;2.83;;;;;;;;;;5116008;28;20062;-63
2023/06/19 12:56:50;;;;;;;5.33;3.00;;;;;;;;;;5114544;28;20063;-63
2023/06/19 12:59:17;;;;;;;3.97;2.97;;;;;;;;;;5116296;28;20051;-63
2023/06/19 13:01:44;;;;;;;3.40;2.80;;;;;;;;;;5116436;28;20048;-63
2023/06/19 13:04:11;;;;;;;4.27;2.80;;;;;;;;;;5116141;28;20489;-63
2023/06/19 13:06:40;;;;;;;4.25;3.58;;;;;;;;;;5116061;28;20044;-63
2023/06/19 13:09:07;;;;;;;3.78;2.90;;;;;;;;;;5115925;28;20416;-64
2023/06/19 13:11:34;;;;;;;4.53;2.83;;;;;;;;;;5113116;28;20082;-63
2023/06/19 13:14:01;;;;;;;3.63;3.03;;;;;;;;;;5115111;28;20052;-64
2023/06/19 13:16:28;;;;;;;3.53;2.90;;;;;;;;;;5115802;28;20047;-64
2023/06/19 13:18:54;;;;;;;4.35;2.70;;;;;;;;;;5115400;28;20048;-63
2023/06/19 13:21:21;;;;;;;5.15;2.97;;;;;;;;;;5115500;28;20055;-64
2023/06/19 13:23:49;;;;;;;3.40;3.08;;;;;;;;;;5115497;28;20052;-63
2023/06/19 13:26:16;;;;;;;5.18;2.90;;;;;;;;;;5112303;28;20649;-64
2023/06/19 13:28:43;;;;;;;4.75;3.20;;;;;;;;;;5115800;28;20059;-63
2023/06/19 13:31:10;;;;;;;6.13;3.30;;;;;;;;;;5115493;28;20052;-63
2023/06/19 13:33:37;;;;;;;6.03;3.25;;;;;;;;;;5115707;28;20468;-63
2023/06/19 13:36:04;;;;;;;4.60;2.97;;;;;;;;;;5115319;28;20044;-63
2023/06/19 13:38:31;;;;;;;4.78;3.63;;;;;;;;;;5113330;27;20047;-63
2023/06/19 13:40:59;;;;;;;4.53;3.40;;;;;;;;;;5114001;28;20052;-63
2023/06/19 13:43:26;;;;;;;;;;;;;;;;;;5115418;28;20056;-63
2023/06/19 13:45:52;;;;;;;4.75;3.78;;;;;;;;;;5115106;28;19919;-63
2023/06/19 13:48:19;;;;;;;3.67;3.20;;;;;;;;;;5114783;28;20048;-63
2023/06/19 13:50:46;;;;;;;5.55;3.08;;;;;;;;;;5115019;28;20452;-63
2023/06/19 13:53:13;;;;;;;4.82;3.08;;;;;;;;;;5113814;28;20055;-63
2023/06/19 13:55:40;;;;;;;4.05;3.00;;;;;;;;;;5113341;28;20400;-63
2023/06/19 13:58:08;;;;;;;11.20;2.70;;;;;;;;;;5114743;28;20048;-64
2023/06/19 14:00:36;;;;;;;5.60;2.85;;;;;;;;;;5114904;28;20055;-62
2023/06/19 14:03:06;;;;;;;4.10;2.85;;;;;;;;;;5114576;28;20055;-63
2023/06/19 14:05:33;;;;;;;5.47;3.17;;;;;;;;;;5114641;28;20059;-63
2023/06/19 14:07:59;;;;;;;5.13;3.20;;;;;;;;;;5114548;28;20055;-63
2023/06/19 14:10:26;;;;;;;4.57;3.25;;;;;;;;;;5111888;28;20056;-63
2023/06/19 14:12:53;;;;;;;4.60;3.00;;;;;;;;;;5114843;28;20051;-62
2023/06/19 14:15:21;;;;;;;4.30;3.13;;;;;;;;;;5114782;28;20051;-61
2023/06/19 14:17:50;;;;;;;4.82;3.13;;;;;;;;;;5115529;28;20086;-63
2023/06/19 14:20:17;;;;;;;3.25;2.95;;;;;;;;;;5115997;28;20048;-63
2023/06/19 14:22:43;;;;;;;4.68;3.25;;;;;;;;;;5114356;28;20051;-64
2023/06/19 14:25:10;;;;;;;4.32;3.25;;;;;;;;;;5111700;28;20051;-64
2023/06/19 14:27:37;;;;;;;7.03;3.17;;;;;;;;;;5113166;28;20056;-64
2023/06/19 14:30:05;;;;;;;4.75;3.28;;;;;;;;;;5113191;28;20056;-64
2023/06/19 14:32:33;;;;;;;6.85;3.25;;;;;;;;;;5114012;28;20408;-63
2023/06/19 14:35:00;;;;;;;;;;;;;;;;;;5114481;28;20078;-64
2023/06/19 14:37:26;;;;;;;4.68;3.42;;;;;;;;;;5114224;28;20360;-64
2023/06/19 14:39:54;;;;;;;3.85;3.08;;;;;;;;;;5109305;28;20047;-64
2023/06/19 14:42:21;;;;;;;4.47;2.90;;;;;;;;;;5113831;28;20058;-63
2023/06/19 14:44:48;;;;;;;4.80;3.25;;;;;;;;;;5095372;28;20473;-63
2023/06/19 14:47:15;;;;;;;3.88;2.88;;;;;;;;;;5091057;28;20040;-63
2023/06/19 14:49:43;;;;;;;4.90;3.08;;;;;;;;;;5102922;28;20052;-63